createdAt,value
2018-06-16T00:00:58.104Z,19.82
2018-06-16T00:03:33.005Z,19.79
2018-06-16T00:06:07.845Z,19.77
2018-06-16T00:08:42.693Z,19.73
2018-06-16T00:11:17.915Z,19.70
2018-06-16T00:13:52.752Z,19.66
2018-06-16T00:16:27.440Z,19.59
2018-06-16T00:19:02.280Z,19.54
2018-06-16T00:21:37.176Z,19.49
2018-06-16T00:24:11.876Z,19.49
2018-06-16T00:26:46.856Z,19.47
2018-06-16T00:29:21.708Z,19.46
2018-06-16T00:31:56.649Z,19.46
2018-06-16T00:34:32.952Z,19.49
2018-06-16T00:37:08.116Z,19.53
2018-06-16T00:39:43.184Z,19.53
2018-06-16T00:42:17.812Z,19.54
2018-06-16T00:44:52.823Z,19.53
2018-06-16T00:47:27.828Z,19.49
2018-06-16T00:50:02.836Z,19.40
2018-06-16T00:52:37.680Z,19.33
2018-06-16T00:55:12.346Z,19.23
2018-06-16T00:57:49.041Z,19.24
2018-06-16T01:00:23.512Z,19.21
2018-06-16T01:02:58.392Z,19.16
2018-06-16T01:05:32.857Z,19.11
2018-06-16T01:08:08.048Z,19.04
2018-06-16T01:10:43.053Z,19.03
2018-06-16T01:13:18.072Z,19.01
2018-06-16T01:15:52.936Z,18.97
2018-06-16T01:18:27.539Z,18.91
2018-06-16T01:21:02.233Z,18.85
2018-06-16T01:23:37.787Z,18.81
2018-06-16T01:26:12.596Z,18.78
2018-06-16T01:28:47.410Z,18.74
2018-06-16T01:31:22.864Z,18.71
2018-06-16T01:33:58.019Z,18.68
2018-06-16T01:36:32.960Z,18.68
2018-06-16T01:39:09.409Z,18.66
2018-06-16T01:41:43.680Z,18.62
2018-06-16T01:44:18.476Z,18.55
2018-06-16T01:46:53.865Z,18.48
2018-06-16T01:49:28.642Z,18.46
2018-06-16T01:52:02.990Z,18.44
2018-06-16T01:54:38.087Z,18.45
2018-06-16T01:57:13.028Z,18.49
2018-06-16T01:59:47.909Z,18.55
2018-06-16T02:02:22.816Z,18.62
2018-06-16T02:04:57.560Z,18.67
2018-06-16T02:07:32.232Z,18.72
2018-06-16T02:10:07.690Z,18.73
2018-06-16T02:12:43.045Z,18.71
2018-06-16T02:15:17.987Z,18.69
2018-06-16T02:17:52.930Z,18.66
2018-06-16T02:20:27.944Z,18.66
2018-06-16T02:23:03.343Z,18.67
2018-06-16T02:25:38.039Z,18.71
2018-06-16T02:28:12.880Z,18.76
2018-06-16T02:30:47.883Z,18.85
2018-06-16T02:33:22.881Z,18.95
2018-06-16T02:35:57.912Z,19.02
2018-06-16T02:38:32.544Z,19.05
2018-06-16T02:41:07.768Z,19.04
2018-06-16T02:43:42.612Z,18.98
2018-06-16T02:46:17.775Z,18.94
2018-06-16T02:48:53.069Z,18.89
2018-06-16T02:51:28.316Z,18.85
2018-06-16T02:54:03.404Z,18.79
2018-06-16T02:56:37.759Z,18.77
2018-06-16T02:59:13.002Z,18.78
2018-06-16T03:01:47.934Z,18.80
2018-06-16T03:04:23.328Z,18.87
2018-06-16T03:06:58.260Z,18.93
2018-06-16T03:09:32.816Z,18.96
2018-06-16T03:12:07.725Z,19.00
2018-06-16T03:14:42.577Z,19.01
2018-06-16T03:17:17.710Z,19.01
2018-06-16T03:19:52.836Z,18.96
2018-06-16T03:22:27.236Z,18.95
2018-06-16T03:25:02.337Z,18.93
2018-06-16T03:27:36.694Z,18.89
2018-06-16T03:30:11.481Z,18.84
2018-06-16T03:32:46.297Z,18.83
2018-06-16T03:35:21.542Z,18.85
2018-06-16T03:37:56.216Z,18.86
2018-06-16T03:40:30.989Z,18.88
2018-06-16T03:43:06.107Z,18.94
2018-06-16T03:45:41.385Z,18.96
2018-06-16T03:48:16.722Z,18.98
2018-06-16T03:50:51.516Z,18.99
2018-06-16T03:53:26.692Z,19.01
2018-06-16T03:56:01.661Z,19.02
2018-06-16T03:58:36.656Z,19.09
2018-06-16T04:01:11.618Z,19.20
2018-06-16T04:03:46.400Z,19.25
2018-06-16T04:06:20.903Z,19.21
2018-06-16T04:08:56.077Z,19.12
2018-06-16T04:11:31.177Z,19.06
2018-06-16T04:14:06.331Z,19.07
2018-06-16T04:16:41.203Z,19.16
2018-06-16T04:19:16.142Z,19.27
2018-06-16T04:21:50.763Z,19.32
2018-06-16T04:24:25.877Z,19.37
2018-06-16T04:27:00.400Z,19.43
2018-06-16T04:29:35.565Z,19.49
2018-06-16T04:32:10.407Z,19.60
2018-06-16T04:34:45.320Z,19.69
2018-06-16T04:37:19.695Z,19.73
2018-06-16T04:39:55.013Z,19.73
2018-06-16T04:42:29.660Z,19.75
2018-06-16T04:45:04.380Z,19.82
2018-06-16T04:47:39.596Z,19.89
2018-06-16T04:50:14.228Z,19.95
2018-06-16T04:52:49.041Z,19.99
2018-06-16T04:55:24.306Z,19.98
2018-06-16T04:57:59.340Z,20.01
2018-06-16T05:00:34.260Z,20.06
2018-06-16T05:03:08.887Z,20.06
2018-06-16T05:05:43.401Z,20.09
2018-06-16T05:08:18.568Z,20.12
2018-06-16T05:10:53.505Z,20.11
2018-06-16T05:13:28.188Z,20.12
2018-06-16T05:16:03.060Z,20.20
2018-06-16T05:18:38.212Z,20.28
2018-06-16T05:21:13.114Z,20.35
2018-06-16T05:23:48.054Z,20.39
2018-06-16T05:26:22.985Z,20.47
2018-06-16T05:28:57.916Z,20.56
2018-06-16T05:31:33.236Z,20.59
2018-06-16T05:34:08.044Z,20.59
2018-06-16T05:36:42.435Z,20.55
2018-06-16T05:39:17.860Z,20.49
2018-06-16T05:41:52.853Z,20.48
2018-06-16T05:44:28.340Z,20.44
2018-06-16T05:47:02.825Z,20.49
2018-06-16T05:49:37.655Z,20.58
2018-06-16T05:52:12.805Z,20.71
2018-06-16T05:54:47.409Z,20.88
2018-06-16T05:57:22.595Z,21.02
2018-06-16T05:59:57.513Z,21.06
2018-06-16T06:02:32.050Z,21.09
2018-06-16T06:05:07.213Z,21.13
2018-06-16T06:07:41.949Z,21.17
2018-06-16T06:10:16.741Z,21.21
2018-06-16T06:12:51.578Z,21.32
2018-06-16T06:15:26.361Z,21.44
2018-06-16T06:18:01.008Z,21.52
2018-06-16T06:20:36.157Z,21.67
2018-06-16T06:23:11.288Z,21.82
2018-06-16T06:25:45.668Z,21.94
2018-06-16T06:28:20.753Z,21.99
2018-06-16T06:30:55.699Z,22.01
2018-06-16T06:33:30.395Z,22.04
2018-06-16T06:36:05.779Z,22.13
2018-06-16T06:38:40.404Z,22.22
2018-06-16T06:41:14.798Z,22.35
2018-06-16T06:43:49.421Z,22.46
2018-06-16T06:46:24.029Z,22.52
2018-06-16T06:48:58.962Z,22.56
2018-06-16T06:51:33.834Z,22.56
2018-06-16T06:54:08.174Z,22.61
2018-06-16T06:56:42.865Z,22.73
2018-06-16T06:59:17.607Z,22.84
2018-06-16T07:01:52.983Z,22.98
2018-06-16T07:04:27.605Z,23.03
2018-06-16T07:07:01.932Z,22.99
2018-06-16T07:09:36.706Z,22.94
2018-06-16T07:12:11.652Z,22.92
2018-06-16T07:14:46.506Z,22.98
2018-06-16T07:17:21.304Z,23.00
2018-06-16T07:19:55.751Z,23.00
2018-06-16T07:22:30.737Z,23.03
2018-06-16T07:25:05.426Z,23.14
2018-06-16T07:27:39.841Z,23.28
2018-06-16T07:30:14.708Z,23.33
2018-06-16T07:32:49.368Z,23.38
2018-06-16T07:35:24.664Z,23.47
2018-06-16T07:37:59.150Z,23.57
2018-06-16T07:40:34.537Z,23.62
2018-06-16T07:43:08.906Z,23.62
2018-06-16T07:45:43.976Z,23.59
2018-06-16T07:48:19.085Z,23.60
2018-06-16T07:50:53.765Z,23.67
2018-06-16T07:53:29.022Z,23.72
2018-06-16T07:56:04.715Z,23.86
2018-06-16T07:58:39.612Z,24.05
2018-06-16T08:01:13.867Z,24.17
2018-06-16T08:03:48.712Z,24.23
2018-06-16T08:06:23.516Z,24.33
2018-06-16T08:08:58.144Z,24.42
2018-06-16T08:11:32.733Z,24.47
2018-06-16T08:14:07.718Z,24.57
2018-06-16T08:16:42.567Z,24.70
2018-06-16T08:19:17.237Z,24.80
2018-06-16T08:21:52.033Z,24.94
2018-06-16T08:24:26.922Z,25.04
2018-06-16T08:27:02.387Z,25.03
2018-06-16T08:29:37.010Z,25.13
2018-06-16T08:32:11.441Z,25.26
2018-06-16T08:34:46.219Z,25.30
2018-06-16T08:37:20.999Z,25.24
2018-06-16T08:39:56.252Z,25.14
2018-06-16T08:42:31.056Z,25.08
2018-06-16T08:45:05.639Z,25.10
2018-06-16T08:47:40.219Z,25.26
2018-06-16T08:50:15.189Z,25.46
2018-06-16T08:52:49.976Z,25.61
2018-06-16T08:55:24.363Z,25.71
2018-06-16T08:57:59.012Z,25.75
2018-06-16T09:00:33.661Z,25.70
2018-06-16T09:03:08.508Z,25.46
2018-06-16T09:05:43.212Z,25.26
2018-06-16T09:08:18.268Z,25.25
2018-06-16T09:10:52.848Z,25.41
2018-06-16T09:13:27.548Z,25.53
2018-06-16T09:16:02.365Z,25.53
2018-06-16T09:18:37.128Z,25.55
2018-06-16T09:21:13.221Z,25.66
2018-06-16T09:23:47.924Z,25.79
2018-06-16T09:26:22.697Z,25.85
2018-06-16T09:28:57.093Z,25.87
2018-06-16T09:31:31.796Z,25.81
2018-06-16T09:34:07.034Z,25.78
2018-06-16T09:36:41.596Z,25.84
2018-06-16T09:39:25.652Z,25.91
2018-06-16T09:42:00.071Z,25.86
2018-06-16T09:44:35.201Z,25.86
2018-06-16T09:47:10.076Z,25.99
2018-06-16T09:49:45.136Z,26.16
2018-06-16T09:52:19.681Z,26.43
2018-06-16T09:54:55.049Z,26.58
2018-06-16T09:57:29.764Z,26.54
2018-06-16T10:00:04.842Z,26.43
2018-06-16T10:02:40.195Z,26.35
2018-06-16T10:05:15.321Z,26.26
2018-06-16T10:07:50.305Z,26.25
2018-06-16T10:10:25.473Z,26.27
2018-06-16T10:12:59.956Z,26.38
2018-06-16T10:15:35.117Z,26.40
2018-06-16T10:18:09.510Z,26.42
2018-06-16T10:20:44.653Z,26.53
2018-06-16T10:23:19.297Z,26.75
2018-06-16T10:25:53.869Z,26.72
2018-06-16T10:28:28.628Z,26.66
2018-06-16T10:31:03.734Z,26.53
2018-06-16T10:33:38.248Z,26.47
2018-06-16T10:36:13.255Z,26.61
2018-06-16T10:38:48.053Z,26.82
2018-06-16T10:41:22.696Z,26.93
2018-06-16T10:43:57.857Z,26.92
2018-06-16T10:46:32.361Z,26.79
2018-06-16T10:49:07.512Z,26.67
2018-06-16T10:51:42.557Z,26.67
2018-06-16T10:54:17.037Z,26.75
2018-06-16T10:56:52.325Z,26.69
2018-06-16T10:59:26.480Z,26.58
2018-06-16T11:02:01.559Z,26.53
2018-06-16T11:04:36.939Z,26.57
2018-06-16T11:07:11.432Z,26.47
2018-06-16T11:09:46.068Z,26.36
2018-06-16T11:12:20.960Z,26.20
2018-06-16T11:14:55.487Z,26.03
2018-06-16T11:17:30.161Z,26.09
2018-06-16T11:20:05.588Z,26.40
2018-06-16T11:22:40.180Z,26.50
2018-06-16T11:25:14.672Z,26.55
2018-06-16T11:27:49.552Z,26.50
2018-06-16T11:30:24.322Z,26.47
2018-06-16T11:32:59.092Z,26.33
2018-06-16T11:35:33.824Z,26.24
2018-06-16T11:38:08.277Z,26.28
2018-06-16T11:40:42.903Z,26.35
2018-06-16T11:43:17.516Z,26.30
2018-06-16T11:45:52.246Z,26.24
2018-06-16T11:48:26.990Z,26.18
2018-06-16T11:51:02.184Z,26.17
2018-06-16T11:53:36.640Z,26.18
2018-06-16T11:56:11.481Z,26.20
2018-06-16T11:58:46.565Z,26.26
2018-06-16T12:01:20.816Z,26.44
2018-06-16T12:03:55.994Z,26.68
2018-06-16T12:06:30.772Z,26.69
2018-06-16T12:09:08.571Z,26.65
2018-06-16T12:11:43.049Z,26.68
2018-06-16T12:14:17.897Z,26.73
2018-06-16T12:16:52.694Z,26.75
2018-06-16T12:19:27.424Z,26.79
2018-06-16T12:22:02.150Z,26.82
2018-06-16T12:24:36.617Z,26.78
2018-06-16T12:27:11.628Z,26.73
2018-06-16T12:29:45.852Z,26.74
2018-06-16T12:32:21.016Z,26.76
2018-06-16T12:34:55.824Z,26.84
2018-06-16T12:37:31.501Z,26.88
2018-06-16T12:40:05.883Z,26.96
2018-06-16T12:42:40.856Z,27.03
2018-06-16T12:45:15.373Z,26.89
2018-06-16T12:47:50.237Z,26.79
2018-06-16T12:50:25.856Z,26.87
2018-06-16T12:53:01.289Z,26.94
2018-06-16T12:55:35.976Z,26.92
2018-06-16T12:58:10.480Z,26.80
2018-06-16T13:00:45.751Z,26.71
2018-06-16T13:03:21.324Z,26.53
2018-06-16T13:05:55.845Z,26.40
2018-06-16T13:08:30.761Z,26.32
2018-06-16T13:11:05.593Z,26.33
2018-06-16T13:13:40.400Z,26.30
2018-06-16T13:16:15.917Z,26.16
2018-06-16T13:18:50.501Z,26.08
2018-06-16T13:21:25.312Z,26.16
2018-06-16T13:24:00.032Z,26.27
2018-06-16T13:26:34.684Z,26.29
2018-06-16T13:29:09.915Z,26.37
2018-06-16T13:31:44.832Z,26.47
2018-06-16T13:34:19.716Z,26.52
2018-06-16T13:36:54.991Z,26.68
2018-06-16T13:39:30.537Z,26.86
2018-06-16T13:42:05.729Z,27.05
2018-06-16T13:44:40.304Z,27.32
2018-06-16T13:47:15.312Z,27.44
2018-06-16T13:49:50.524Z,27.46
2018-06-16T13:52:25.816Z,27.44
2018-06-16T13:55:00.461Z,27.49
2018-06-16T13:57:35.072Z,27.54
2018-06-16T14:00:09.946Z,27.57
2018-06-16T14:02:45.196Z,27.75
2018-06-16T14:05:20.241Z,27.85
2018-06-16T14:07:55.465Z,27.90
2018-06-16T14:10:30.928Z,28.02
2018-06-16T14:13:05.925Z,28.04
2018-06-16T14:15:40.378Z,28.09
2018-06-16T14:18:15.652Z,28.03
2018-06-16T14:20:53.499Z,27.99
2018-06-16T14:23:28.529Z,27.71
2018-06-16T14:26:03.197Z,27.49
2018-06-16T14:28:38.082Z,27.42
2018-06-16T14:31:12.966Z,27.52
2018-06-16T14:33:47.745Z,27.69
2018-06-16T14:36:22.898Z,27.98
2018-06-16T14:38:57.633Z,28.15
2018-06-16T14:41:33.217Z,27.94
2018-06-16T14:44:08.093Z,27.63
2018-06-16T14:46:42.696Z,27.61
2018-06-16T14:49:18.029Z,27.76
2018-06-16T14:51:52.674Z,27.77
2018-06-16T14:54:26.975Z,27.66
2018-06-16T14:57:02.521Z,27.46
2018-06-16T14:59:37.124Z,27.31
2018-06-16T15:02:12.864Z,27.06
2018-06-16T15:04:47.292Z,26.87
2018-06-16T15:07:22.077Z,26.73
2018-06-16T15:09:57.245Z,26.80
2018-06-16T15:12:31.712Z,26.98
2018-06-16T15:15:06.817Z,27.20
2018-06-16T15:17:41.594Z,27.37
2018-06-16T15:20:16.820Z,27.61
2018-06-16T15:22:51.428Z,27.58
2018-06-16T15:25:26.391Z,27.45
2018-06-16T15:28:01.560Z,27.58
2018-06-16T15:30:36.320Z,27.72
2018-06-16T15:33:11.013Z,27.58
2018-06-16T15:35:46.248Z,27.54
2018-06-16T15:38:20.704Z,27.67
2018-06-16T15:40:55.505Z,27.86
2018-06-16T15:43:30.320Z,27.93
2018-06-16T15:46:05.988Z,27.91
2018-06-16T15:48:41.093Z,27.94
2018-06-16T15:51:15.411Z,27.89
2018-06-16T15:53:50.360Z,27.77
2018-06-16T15:56:25.328Z,27.68
2018-06-16T15:59:00.295Z,27.48
2018-06-16T16:01:35.165Z,27.33
2018-06-16T16:04:10.333Z,27.30
2018-06-16T16:06:45.248Z,27.27
2018-06-16T16:09:20.169Z,27.17
2018-06-16T16:11:54.913Z,27.04
2018-06-16T16:14:30.312Z,27.03
2018-06-16T16:17:06.103Z,27.08
2018-06-16T16:19:41.692Z,27.07
2018-06-16T16:22:16.393Z,27.03
2018-06-16T16:24:51.233Z,27.09
2018-06-16T16:27:25.892Z,27.27
2018-06-16T16:30:00.880Z,27.43
2018-06-16T16:32:36.125Z,27.53
2018-06-16T16:35:11.137Z,27.50
2018-06-16T16:37:45.720Z,27.41
2018-06-16T16:40:20.719Z,27.30
2018-06-16T16:42:55.453Z,27.19
2018-06-16T16:45:30.713Z,27.17
2018-06-16T16:48:05.322Z,27.13
2018-06-16T16:50:40.607Z,27.10
2018-06-16T16:53:14.896Z,27.16
2018-06-16T16:55:50.013Z,27.21
2018-06-16T16:58:24.613Z,27.21
2018-06-16T17:00:59.667Z,27.15
2018-06-16T17:03:34.732Z,27.10
2018-06-16T17:06:09.424Z,27.06
2018-06-16T17:08:44.248Z,27.06
2018-06-16T17:11:19.300Z,26.97
2018-06-16T17:13:54.504Z,26.86
2018-06-16T17:16:29.893Z,26.76
2018-06-16T17:19:05.173Z,26.69
2018-06-16T17:21:40.072Z,26.63
2018-06-16T17:24:15.313Z,26.55
2018-06-16T17:26:50.317Z,26.44
2018-06-16T17:29:25.308Z,26.32
2018-06-16T17:32:00.238Z,26.28
2018-06-16T17:34:34.946Z,26.32
2018-06-16T17:37:09.949Z,26.30
2018-06-16T17:39:44.614Z,26.29
2018-06-16T17:42:19.384Z,26.25
2018-06-16T17:44:54.145Z,26.27
2018-06-16T17:47:28.904Z,26.29
2018-06-16T17:50:03.670Z,26.36
2018-06-16T17:52:38.184Z,26.38
2018-06-16T17:55:13.169Z,26.34
2018-06-16T17:57:47.890Z,26.35
2018-06-16T18:00:23.074Z,26.34
2018-06-16T18:02:58.968Z,26.32
2018-06-16T18:05:33.852Z,26.25
2018-06-16T18:08:08.990Z,26.17
2018-06-16T18:13:54.213Z,25.94
2018-06-16T18:16:29.357Z,25.88
2018-06-16T18:19:04.208Z,25.85
2018-06-16T18:21:39.395Z,25.81
2018-06-16T18:24:13.905Z,25.75
2018-06-16T18:26:48.651Z,25.69
2018-06-16T18:29:23.478Z,25.70
2018-06-16T18:31:59.539Z,25.74
2018-06-16T18:34:33.950Z,25.77
2018-06-16T18:37:09.186Z,25.81
2018-06-16T18:39:43.880Z,25.85
2018-06-16T18:42:18.679Z,25.87
2018-06-16T18:44:53.813Z,25.86
2018-06-16T18:47:28.809Z,25.85
2018-06-16T18:50:04.294Z,25.82
2018-06-16T18:52:39.043Z,25.77
2018-06-16T18:55:14.328Z,25.73
2018-06-16T18:57:49.102Z,25.69
2018-06-16T19:00:24.058Z,25.65
2018-06-16T19:02:59.043Z,25.57
2018-06-16T19:05:34.107Z,25.52
2018-06-16T19:08:09.057Z,25.45
2018-06-16T19:10:43.973Z,25.41
2018-06-16T19:13:19.189Z,25.37
2018-06-16T19:15:47.436Z,25.33
2018-06-16T19:18:15.864Z,25.27
2018-06-16T19:20:44.138Z,25.21
2018-06-16T19:23:12.933Z,25.18
2018-06-16T19:25:41.295Z,25.13
2018-06-16T19:28:09.965Z,25.09
2018-06-16T19:30:38.211Z,25.05
2018-06-16T19:33:06.452Z,25.01
2018-06-16T19:35:34.712Z,24.96
2018-06-16T19:38:02.889Z,24.91
2018-06-16T19:40:31.066Z,24.86
2018-06-16T19:42:59.802Z,24.84
2018-06-16T19:45:28.345Z,24.80
2018-06-16T19:47:56.591Z,24.76
2018-06-16T19:50:25.063Z,24.70
2018-06-16T19:52:53.728Z,24.64
2018-06-16T19:55:22.046Z,24.62
2018-06-16T19:57:50.697Z,24.61
2018-06-16T20:00:18.995Z,24.59
2018-06-16T20:02:47.335Z,24.52
2018-06-16T20:05:15.880Z,24.34
2018-06-16T20:07:44.195Z,24.05
2018-06-16T20:10:13.194Z,23.53
2018-06-16T20:12:41.616Z,23.00
2018-06-16T20:15:10.194Z,22.47
2018-06-16T20:17:39.227Z,22.01
2018-06-16T20:20:08.150Z,21.73
2018-06-16T20:22:37.283Z,21.41
2018-06-16T20:25:06.007Z,21.06
2018-06-16T20:27:34.222Z,20.75
2018-06-16T20:30:03.293Z,20.56
2018-06-16T20:32:31.496Z,20.46
2018-06-16T20:35:25.173Z,20.38
2018-06-16T20:37:54.374Z,20.21
2018-06-16T20:40:22.661Z,20.07
2018-06-16T20:42:51.339Z,19.93
2018-06-16T20:45:19.561Z,19.86
2018-06-16T20:47:48.463Z,19.82
2018-06-16T20:50:16.892Z,19.76
2018-06-16T20:52:45.457Z,19.76
2018-06-16T20:55:14.211Z,19.77
2018-06-16T20:57:42.420Z,19.78
2018-06-16T21:00:10.994Z,19.75
2018-06-16T21:02:39.885Z,19.67
2018-06-16T21:05:08.286Z,19.54
2018-06-16T21:07:36.727Z,19.40
2018-06-16T21:10:05.368Z,19.35
2018-06-16T21:12:34.851Z,19.44
2018-06-16T21:15:03.096Z,19.55
2018-06-16T21:17:31.302Z,19.69
2018-06-16T21:19:59.535Z,19.80
2018-06-16T21:22:27.940Z,20.01
2018-06-16T21:24:56.178Z,20.23
2018-06-16T21:27:29.908Z,20.44
2018-06-16T21:29:58.389Z,20.65
2018-06-16T21:32:26.656Z,20.80
2018-06-16T21:34:54.923Z,20.81
2018-06-16T21:37:23.566Z,20.80
2018-06-16T21:39:52.260Z,20.79
2018-06-16T21:42:20.720Z,20.82
2018-06-16T21:44:49.440Z,20.90
2018-06-16T21:47:17.882Z,20.97
2018-06-16T21:49:46.017Z,21.00
2018-06-16T21:52:14.140Z,21.02
2018-06-16T21:54:42.628Z,20.96
2018-06-16T21:57:11.100Z,20.92
2018-06-16T21:59:39.776Z,20.87
2018-06-16T22:02:07.911Z,20.88
2018-06-16T22:04:36.085Z,20.92
2018-06-16T22:07:04.371Z,20.89
2018-06-16T22:09:32.869Z,20.85
2018-06-16T22:12:01.008Z,20.85
2018-06-16T22:14:29.506Z,20.88
2018-06-16T22:16:57.844Z,20.78
2018-06-16T22:19:26.628Z,20.69
2018-06-16T22:21:54.755Z,20.53
2018-06-16T22:24:23.219Z,20.37
2018-06-16T22:26:51.352Z,20.18
2018-06-16T22:29:19.838Z,20.02
2018-06-16T22:31:47.974Z,20.03
2018-06-16T22:34:16.146Z,20.17
2018-06-16T22:36:44.306Z,20.33
2018-06-16T22:39:13.523Z,20.51
2018-06-16T22:41:41.660Z,20.69
2018-06-16T22:44:09.995Z,20.76
2018-06-16T22:46:38.177Z,20.75
2018-06-16T22:49:06.890Z,20.49
2018-06-16T22:51:35.040Z,20.20
2018-06-16T22:54:03.204Z,19.97
2018-06-16T22:56:31.610Z,19.78
2018-06-16T22:59:00.031Z,19.64
2018-06-16T23:01:28.161Z,19.47
2018-06-16T23:03:56.565Z,19.30
2018-06-16T23:06:24.717Z,19.15
2018-06-16T23:08:52.878Z,19.04
2018-06-16T23:11:21.256Z,18.97
2018-06-16T23:13:49.440Z,18.89
2018-06-16T23:16:17.602Z,18.77
2018-06-16T23:18:45.742Z,18.63
2018-06-16T23:21:14.226Z,18.52
2018-06-16T23:23:42.572Z,18.46
2018-06-16T23:26:10.731Z,18.42
2018-06-16T23:28:38.860Z,18.41
2018-06-16T23:31:07.048Z,18.39
2018-06-16T23:33:35.180Z,18.37
2018-06-16T23:36:03.734Z,18.35
2018-06-16T23:38:32.124Z,18.34
2018-06-16T23:41:00.274Z,18.30
2018-06-16T23:43:28.754Z,18.25
2018-06-16T23:45:56.893Z,18.18
2018-06-16T23:48:25.028Z,18.15
2018-06-16T23:50:53.488Z,18.12
2018-06-16T23:53:21.965Z,18.10
2018-06-16T23:55:50.503Z,18.10
2018-06-16T23:58:18.980Z,18.06
